Time;durP1;ratioP1;P1;durP2;ratioP2;P2;SDS_P1;SDS_P2;PMS_P1;PMS_P2;Temp;Humidity;BMP_temperature;BMP_pressure;BME280_temperature;BME280_humidity;BME280_pressure;Samples;Min_cycle;Max_cycle;Signal;HPM_P1;HPM_P2
2021/08/18 00:00:13;;;;;;;25.37;12.07;;;;;;;12.07;93.85;96828.88;2594893;36;20988;-72
2021/08/18 00:02:43;;;;;;;31.60;12.20;;;;;;;12.05;93.25;96822.91;2593700;54;20963;-73
2021/08/18 00:05:17;;;;;;;31.73;13.80;;;;;;;11.91;93.35;96819.56;2593740;36;20467;-74
2021/08/18 00:07:48;;;;;;;29.47;13.50;;;;;;;11.93;93.95;96815.88;2593512;54;20453;-72
2021/08/18 00:10:18;;;;;;;28.73;11.60;;;;;;;11.94;93.94;96824.63;2593158;36;20434;-73
2021/08/18 00:12:50;;;;;;;25.30;12.20;;;;;;;11.93;94.27;96820.28;2592627;39;20813;-74
2021/08/18 00:15:20;;;;;;;31.40;13.57;;;;;;;11.97;94.13;96821.75;2593514;31;20498;-73
2021/08/18 00:17:50;;;;;;;26.97;12.27;;;;;;;11.83;93.76;96813.03;2594535;54;21195;-73
2021/08/18 00:20:20;;;;;;;28.47;12.30;;;;;;;11.90;93.81;96817.88;2593616;36;20418;-72
2021/08/18 00:22:50;;;;;;;38.00;14.47;;;;;;;11.85;94.10;96811.13;2594673;54;20466;-73
2021/08/18 00:25:20;;;;;;;33.20;12.27;;;;;;;11.88;94.61;96810.94;2593713;36;20457;-74
2021/08/18 00:27:52;;;;;;;30.43;13.60;;;;;;;11.82;94.22;96808.75;2596769;54;20428;-72
2021/08/18 00:30:23;;;;;;;33.63;14.17;;;;;;;11.86;94.00;96809.38;2595890;36;20426;-73
2021/08/18 00:32:53;;;;;;;27.83;13.13;;;;;;;11.81;94.13;96799.19;2593982;54;21116;-72
2021/08/18 00:35:24;;;;;;;26.57;12.80;;;;;;;11.87;93.94;96800.53;2594130;36;20514;-73
2021/08/18 00:37:54;;;;;;;29.23;12.30;;;;;;;11.90;94.07;96805.63;2594477;47;20427;-74
2021/08/18 00:40:24;;;;;;;30.53;12.30;;;;;;;11.91;93.85;96795.94;2594535;36;21160;-74
2021/08/18 00:42:56;;;;;;;36.10;14.07;;;;;;;11.97;93.28;96804.22;2595008;54;20455;-75
2021/08/18 00:45:27;;;;;;;27.73;12.80;;;;;;;12.01;92.49;96802.22;2594882;36;20933;-73
2021/08/18 00:47:58;;;;;;;33.80;13.83;;;;;;;11.93;92.93;96800.13;2595124;54;20388;-73
2021/08/18 00:50:31;;;;;;;33.70;13.77;;;;;;;11.93;92.42;96796.69;2595770;36;20428;-74
2021/08/18 00:53:01;;;;;;;34.10;14.67;;;;;;;11.98;92.80;96791.94;2595400;39;20836;-75
2021/08/18 00:55:31;;;;;;;30.07;11.77;;;;;;;12.00;92.60;96795.31;2595976;36;20458;-72
2021/08/18 00:58:05;;;;;;;34.07;13.67;;;;;;;11.98;92.37;96797.19;2596395;54;20906;-72
2021/08/18 01:00:35;;;;;;;42.97;13.90;;;;;;;11.96;91.91;96792.06;2595345;31;20983;-73
2021/08/18 01:03:05;;;;;;;31.77;12.73;;;;;;;11.96;92.00;96785.97;2595632;31;20953;-73
2021/08/18 01:05:36;;;;;;;33.50;12.07;;;;;;;11.96;92.22;96792.06;2593499;36;20434;-73
2021/08/18 01:08:06;;;;;;;26.30;12.03;;;;;;;11.92;92.55;96785.34;2594720;54;20899;-74
2021/08/18 01:10:37;;;;;;;31.57;13.37;;;;;;;11.90;92.53;96784.63;2594618;36;20951;-72
2021/08/18 01:13:11;;;;;;;37.13;12.40;;;;;;;11.97;92.66;96793.72;2594892;54;20919;-74
2021/08/18 01:15:41;;;;;;;34.70;13.87;;;;;;;11.90;92.92;96782.00;2596647;36;20938;-74
2021/08/18 01:18:11;;;;;;;24.73;12.13;;;;;;;11.87;92.28;96783.00;2597145;54;21000;-72
2021/08/18 01:20:43;;;;;;;26.00;12.00;;;;;;;11.91;92.12;96783.66;2595913;36;20467;-74
2021/08/18 01:23:15;;;;;;;25.43;10.70;;;;;;;11.91;91.80;96786.28;2596117;54;21250;-75
2021/08/18 01:25:47;;;;;;;27.07;11.73;;;;;;;11.92;92.26;96782.72;2593957;36;20410;-73
2021/08/18 01:28:20;;;;;;;25.97;12.80;;;;;;;11.94;92.31;96780.81;2594086;47;20894;-74
2021/08/18 01:30:52;;;;;;;34.77;11.83;;;;;;;11.92;91.53;96780.09;2594854;36;20422;-73
2021/08/18 01:33:22;;;;;;;27.40;12.77;;;;;;;11.94;91.83;96787.88;2595737;54;20886;-73
2021/08/18 01:35:54;;;;;;;23.00;10.80;;;;;;;11.87;91.75;96777.75;2594031;36;20424;-74
2021/08/18 01:38:24;;;;;;;27.07;11.20;;;;;;;11.94;91.68;96793.94;2594716;54;20439;-72
2021/08/18 01:40:58;;;;;;;20.93;9.57;;;;;;;11.90;91.92;96794.25;2594243;36;20816;-73
2021/08/18 01:43:28;;;;;;;22.70;9.53;;;;;;;11.89;91.54;96793.44;2594207;54;20462;-74
2021/08/18 01:46:00;;;;;;;20.00;8.80;;;;;;;11.92;91.73;96795.84;2593229;36;20395;-73
2021/08/18 01:48:32;;;;;;;16.77;9.20;;;;;;;11.98;92.10;96790.16;2594033;36;20846;-74
2021/08/18 01:51:05;;;;;;;24.20;9.50;;;;;;;11.94;91.21;96796.56;2594329;39;21055;-75
2021/08/18 01:53:41;;;;;;;14.73;7.80;;;;;;;11.98;91.17;96805.06;2598374;36;20971;-74
2021/08/18 01:56:13;;;;;;;26.57;8.07;;;;;;;11.96;91.58;96797.31;2598369;54;20960;-77
2021/08/18 01:58:43;;;;;;;21.80;7.63;;;;;;;12.00;91.67;96803.19;2594339;36;20432;-74
2021/08/18 02:01:18;;;;;;;21.07;9.33;;;;;;;11.93;91.30;96792.25;2594206;54;21001;-72
2021/08/18 02:03:50;;;;;;;14.10;5.47;;;;;;;11.95;91.46;96795.59;2594227;36;20395;-74
2021/08/18 02:06:21;;;;;;;13.87;5.37;;;;;;;12.00;91.37;96795.31;2594556;39;20777;-71
2021/08/18 02:08:50;;;;;;;10.27;5.10;;;;;;;11.99;91.75;96797.06;2594100;36;20403;-71
2021/08/18 02:11:20;;;;;;;11.37;5.77;;;;;;;11.94;91.95;96791.31;2594094;39;20771;-71
2021/08/18 02:13:50;;;;;;;12.27;6.00;;;;;;;12.00;92.29;96795.31;2593169;36;20442;-71
2021/08/18 02:16:22;;;;;;;14.90;6.97;;;;;;;11.94;91.83;96798.38;2594003;54;21414;-71
2021/08/18 02:18:54;;;;;;;15.20;6.57;;;;;;;12.02;91.55;96796.84;2597732;36;20428;-72
2021/08/18 02:21:24;;;;;;;11.83;6.47;;;;;;;11.99;91.70;96791.81;2593336;47;20458;-72
2021/08/18 02:23:54;;;;;;;16.00;6.47;;;;;;;12.03;91.89;96793.28;2593877;36;20708;-73
2021/08/18 02:26:24;;;;;;;17.40;6.60;;;;;;;12.06;91.55;96797.47;2594219;54;20387;-73
2021/08/18 02:28:54;;;;;;;10.60;6.10;;;;;;;11.99;91.05;96790.97;2594156;36;20843;-72
2021/08/18 02:31:27;;;;;;;12.60;6.17;;;;;;;12.03;91.62;96788.03;2594303;54;20384;-73
2021/08/18 02:33:57;;;;;;;14.50;6.07;;;;;;;12.04;91.76;96788.88;2594043;36;20463;-71
2021/08/18 02:36:27;;;;;;;13.10;5.37;;;;;;;12.02;92.55;96794.22;2594115;54;20918;-73
2021/08/18 02:38:56;;;;;;;9.77;5.23;;;;;;;11.98;92.03;96795.41;2593341;36;20407;-72
2021/08/18 02:41:27;;;;;;;9.53;4.90;;;;;;;11.99;92.59;96793.59;2596421;54;20429;-72
2021/08/18 02:43:56;;;;;;;11.07;5.20;;;;;;;11.96;92.16;96794.69;2594474;31;21221;-73
2021/08/18 02:46:29;;;;;;;13.63;5.50;;;;;;;12.00;92.21;96795.31;2594442;54;20939;-73
2021/08/18 02:48:59;;;;;;;9.50;5.23;;;;;;;12.03;92.29;96788.03;2592963;36;20553;-73
2021/08/18 02:51:28;;;;;;;7.27;4.47;;;;;;;11.96;91.97;96786.81;2595295;39;20805;-73
2021/08/18 02:53:58;;;;;;;8.10;4.07;;;;;;;12.00;92.26;96788.25;2594177;36;20427;-74
2021/08/18 02:56:28;;;;;;;9.17;4.50;;;;;;;11.97;92.84;96785.84;2593767;39;20728;-75
2021/08/18 02:58:58;;;;;;;9.60;4.80;;;;;;;11.97;92.75;96790.25;2594567;36;20447;-74
2021/08/18 03:01:30;;;;;;;7.80;4.13;;;;;;;11.92;92.47;96794.97;2594525;47;20892;-77
2021/08/18 03:04:00;;;;;;;6.90;3.57;;;;;;;11.91;92.96;96783.66;2594932;36;20926;-74
2021/08/18 03:06:30;;;;;;;6.70;3.63;;;;;;;11.92;92.11;96787.97;2595208;54;21176;-73
2021/08/18 03:09:00;;;;;;;6.70;3.70;;;;;;;11.95;92.71;96790.34;2593976;36;20907;-74
2021/08/18 03:11:30;;;;;;;7.40;3.90;;;;;;;12.01;92.26;96789.91;2594161;54;20974;-73
2021/08/18 03:14:00;;;;;;;8.80;3.90;;;;;;;12.03;91.53;96793.28;2595214;36;20431;-73
2021/08/18 03:16:32;;;;;;;7.93;2.97;;;;;;;11.97;91.12;96788.47;2593482;39;20894;-74
2021/08/18 03:19:02;;;;;;;6.03;3.30;;;;;;;11.99;91.28;96786.56;2593890;31;20426;-73
2021/08/18 03:21:32;;;;;;;9.10;3.93;;;;;;;12.08;91.03;96795.59;2593348;54;20439;-74
2021/08/18 03:24:02;;;;;;;6.13;4.00;;;;;;;12.10;91.18;96798.09;2593740;36;20930;-73
2021/08/18 03:26:32;;;;;;;8.20;4.30;;;;;;;12.09;91.33;96793.78;2594331;54;20411;-73
2021/08/18 03:29:02;;;;;;;9.67;4.40;;;;;;;12.07;91.88;96792.13;2595340;36;20925;-74
2021/08/18 03:31:34;;;;;;;6.90;3.90;;;;;;;12.11;91.65;96792.72;2595519;39;20743;-74
2021/08/18 03:34:05;;;;;;;9.00;4.87;;;;;;;12.03;91.40;96793.28;2594607;36;20975;-74
2021/08/18 03:36:34;;;;;;;8.10;3.73;;;;;;;11.99;91.63;96794.44;2594508;39;20744;-72
2021/08/18 03:39:04;;;;;;;7.50;4.03;;;;;;;12.02;91.68;96790.78;2598379;31;20431;-76
2021/08/18 03:41:34;;;;;;;8.53;3.80;;;;;;;12.03;91.37;96793.28;2600077;54;21005;-73
2021/08/18 03:44:04;;;;;;;9.23;4.07;;;;;;;12.05;91.90;96787.91;2594690;36;20415;-73
2021/08/18 03:46:37;;;;;;;8.20;4.40;;;;;;;12.09;91.49;96791.16;2595913;54;20419;-74
2021/08/18 03:49:06;;;;;;;6.50;4.13;;;;;;;11.97;91.80;96782.38;2595821;31;20534;-73
2021/08/18 03:51:36;;;;;;;8.83;4.80;;;;;;;12.04;92.04;96794.13;2593799;39;20745;-73
2021/08/18 03:54:06;;;;;;;8.10;4.00;;;;;;;12.01;92.35;96789.91;2593677;36;20448;-72
2021/08/18 03:56:36;;;;;;;6.93;3.60;;;;;;;12.09;91.95;96793.78;2592953;54;20471;-73
2021/08/18 03:59:06;;;;;;;11.53;4.67;;;;;;;12.12;92.11;96796.22;2593577;36;20898;-72
2021/08/18 04:01:38;;;;;;;9.70;3.60;;;;;;;11.98;92.17;96800.66;2594403;54;20942;-74
2021/08/18 04:04:08;;;;;;;7.50;3.17;;;;;;;11.96;92.43;96788.59;2593346;36;21227;-75
2021/08/18 04:06:38;;;;;;;6.93;3.70;;;;;;;11.96;92.66;96797.31;2594421;39;20732;-73
2021/08/18 04:09:08;;;;;;;7.90;3.30;;;;;;;11.99;92.53;96793.59;2594671;36;20727;-73
2021/08/18 04:11:38;;;;;;;5.50;3.20;;;;;;;11.97;92.30;96792.88;2594752;54;20898;-74
2021/08/18 04:14:10;;;;;;;4.57;2.87;;;;;;;12.03;92.12;96801.16;2594849;36;20982;-73
2021/08/18 04:16:42;;;;;;;5.33;3.37;;;;;;;12.03;91.71;96797.69;2595534;39;20924;-74
2021/08/18 04:19:12;;;;;;;5.90;3.23;;;;;;;12.08;91.40;96803.47;2595275;36;20942;-73
2021/08/18 04:21:42;;;;;;;4.97;3.03;;;;;;;12.02;92.34;96799.47;2594849;54;20400;-73
2021/08/18 04:24:13;;;;;;;6.70;2.87;;;;;;;12.02;92.13;96803.91;2593703;36;21240;-73
2021/08/18 04:26:42;;;;;;;6.03;2.77;;;;;;;12.08;91.14;96803.47;2594038;54;20462;-73
2021/08/18 04:29:12;;;;;;;8.30;3.03;;;;;;;12.07;91.52;96799.16;2594147;36;20739;-72
2021/08/18 04:31:45;;;;;;;4.27;2.73;;;;;;;12.05;91.51;96804.53;2593986;39;20814;-74
2021/08/18 04:34:15;;;;;;;8.57;2.50;;;;;;;12.02;91.89;96802.09;2593933;36;20989;-74
2021/08/18 04:36:45;;;;;;;2.93;2.03;;;;;;;12.01;91.74;96797.78;2593253;54;20467;-74
2021/08/18 04:39:14;;;;;;;7.40;2.57;;;;;;;12.05;91.48;96808.91;2593573;31;20751;-74
2021/08/18 04:41:44;;;;;;;5.97;2.40;;;;;;;12.09;91.80;96801.66;2595382;54;20918;-74
2021/08/18 04:44:14;;;;;;;6.97;2.47;;;;;;;12.13;91.70;96811.81;2594597;36;20471;-74
2021/08/18 04:46:46;;;;;;;6.93;2.60;;;;;;;12.16;91.46;96810.78;2595200;54;20419;-74
2021/08/18 04:49:16;;;;;;;4.80;2.60;;;;;;;12.14;91.19;96808.25;2594472;36;20914;-74
2021/08/18 04:51:46;;;;;;;7.73;3.00;;;;;;;12.13;91.72;96811.00;2593882;54;20836;-74
2021/08/18 04:54:15;;;;;;;4.67;2.60;;;;;;;12.14;91.21;96813.50;2593759;31;20431;-73
2021/08/18 04:56:45;;;;;;;4.63;2.47;;;;;;;12.17;91.13;96815.06;2594163;54;20434;-73
2021/08/18 04:59:15;;;;;;;4.53;2.30;;;;;;;12.14;91.55;96810.06;2593303;31;20463;-73
2021/08/18 05:01:47;;;;;;;4.67;2.97;;;;;;;12.18;91.51;96816.75;2593805;54;20427;-73
2021/08/18 05:04:17;;;;;;;5.87;2.37;;;;;;;12.18;91.23;96809.72;2594099;36;20962;-73
2021/08/18 05:06:48;;;;;;;3.23;1.97;;;;;;;12.18;91.21;96806.25;2593102;54;20500;-73
2021/08/18 05:09:17;;;;;;;12.70;2.80;;;;;;;12.14;90.97;96810.88;2594882;36;20780;-75
2021/08/18 05:11:47;;;;;;;4.90;2.70;;;;;;;12.18;91.33;96811.50;2594791;54;20546;-75
2021/08/18 05:14:17;;;;;;;11.77;2.63;;;;;;;12.17;91.38;96815.06;2594657;36;20735;-75
2021/08/18 05:16:49;;;;;;;3.80;2.27;;;;;;;12.20;91.35;96818.31;2593717;54;20887;-75
2021/08/18 05:19:19;;;;;;;5.37;2.17;;;;;;;12.25;90.85;96825.84;2594530;36;20443;-74
2021/08/18 05:21:49;;;;;;;4.40;1.90;;;;;;;12.14;91.62;96818.78;2594756;54;20483;-74
2021/08/18 05:24:19;;;;;;;5.43;2.17;;;;;;;12.14;91.26;96815.31;2595107;36;20419;-74
2021/08/18 05:26:49;;;;;;;4.13;2.40;;;;;;;12.26;90.53;96823.13;2594705;54;20395;-75
2021/08/18 05:29:18;;;;;;;2.80;2.27;;;;;;;12.20;90.92;96820.94;2594239;36;21054;-74
2021/08/18 05:31:51;;;;;;;4.20;1.60;;;;;;;12.25;90.93;96824.09;2594657;54;20906;-73
2021/08/18 05:34:21;;;;;;;9.30;2.50;;;;;;;12.23;91.08;96819.88;2594318;36;20431;-73
2021/08/18 05:36:51;;;;;;;5.23;2.93;;;;;;;12.32;90.99;96821.84;2594704;54;20419;-72
2021/08/18 05:39:21;;;;;;;4.73;2.37;;;;;;;12.35;90.29;96829.53;2594586;36;20427;-72
2021/08/18 05:41:51;;;;;;;5.00;2.70;;;;;;;12.27;90.33;96824.00;2594990;54;20920;-73
2021/08/18 05:44:21;;;;;;;8.00;2.60;;;;;;;12.31;91.33;96829.84;2594493;36;21061;-73
2021/08/18 05:46:54;;;;;;;8.60;3.50;;;;;;;12.33;91.85;96826.16;2594734;54;20967;-76
2021/08/18 05:49:24;;;;;;;6.43;2.73;;;;;;;12.35;91.37;96820.78;2595153;31;20993;-76
2021/08/18 05:51:54;;;;;;;5.33;3.30;;;;;;;12.31;91.35;96822.81;2595417;54;20429;-75
2021/08/18 05:54:24;;;;;;;6.33;2.93;;;;;;;12.40;91.58;96816.88;2595486;36;20476;-73
2021/08/18 05:56:54;;;;;;;7.70;3.10;;;;;;;12.41;91.69;96815.13;2595550;54;20466;-74
2021/08/18 05:59:24;;;;;;;5.43;3.50;;;;;;;12.41;90.99;96818.56;2595119;36;21009;-75
2021/08/18 06:01:56;;;;;;;13.17;3.80;;;;;;;12.48;91.81;96823.38;2593897;54;20419;-74
2021/08/18 06:04:26;;;;;;;7.53;2.80;;;;;;;12.45;90.22;96817.41;2594563;36;20825;-75
2021/08/18 06:06:57;;;;;;;5.93;3.30;;;;;;;12.58;91.61;96814.69;2593666;54;20407;-76
2021/08/18 06:09:27;;;;;;;5.57;2.53;;;;;;;12.55;90.59;96824.63;2594371;31;20904;-75
2021/08/18 06:11:56;;;;;;;8.90;2.60;;;;;;;12.63;90.66;96822.25;2594829;54;20399;-74
2021/08/18 06:14:26;;;;;;;7.33;2.80;;;;;;;12.71;90.66;96822.53;2595503;36;20450;-77
2021/08/18 06:16:59;;;;;;;5.53;2.90;;;;;;;12.82;89.48;96814.69;2594845;54;20452;-75
2021/08/18 06:19:28;;;;;;;4.43;2.20;;;;;;;12.81;88.84;96826.13;2594237;36;20481;-76
2021/08/18 06:21:59;;;;;;;38.50;21.67;;;;;;;12.79;89.19;96825.41;2595937;54;20989;-75
2021/08/18 06:24:40;;;;;;;5.30;3.60;;;;;;;12.80;89.50;96824.47;2595458;36;20798;-76
2021/08/18 06:27:11;;;;;;;5.43;2.60;;;;;;;12.79;89.89;96812.28;2596399;54;20914;-75
2021/08/18 06:29:42;;;;;;;5.37;3.27;;;;;;;12.88;89.02;96821.28;2597151;36;20467;-76
2021/08/18 06:32:14;;;;;;;3.73;1.63;;;;;;;12.92;89.37;96827.16;2595041;54;21006;-76
2021/08/18 06:34:44;;;;;;;6.50;2.60;;;;;;;12.96;88.53;96824.16;2594918;36;20405;-73
2021/08/18 06:37:14;;;;;;;6.00;2.13;;;;;;;13.06;88.35;96824.31;2595415;39;20729;-74
2021/08/18 06:39:44;;;;;;;5.60;2.03;;;;;;;13.13;88.24;96822.06;2594859;36;20442;-74
2021/08/18 06:42:14;;;;;;;3.80;1.90;;;;;;;13.18;87.27;96828.66;2594973;54;20421;-73
2021/08/18 06:44:44;;;;;;;2.73;1.60;;;;;;;13.18;87.58;96831.28;2595212;36;20425;-74
2021/08/18 06:47:17;;;;;;;2.77;2.00;;;;;;;13.38;87.23;96824.53;2594628;46;20409;-73
2021/08/18 06:49:47;;;;;;;11.50;5.90;;;;;;;13.51;87.19;96826.25;2594834;36;20781;-76
2021/08/18 06:52:17;;;;;;;12.70;5.70;;;;;;;13.53;86.43;96827.78;2594834;54;20402;-73
2021/08/18 06:54:47;;;;;;;4.90;2.03;;;;;;;13.61;86.91;96828.03;2594810;36;20407;-73
2021/08/18 06:57:17;;;;;;;3.93;1.53;;;;;;;13.70;86.48;96823.84;2596112;54;20425;-73
2021/08/18 06:59:46;;;;;;;3.13;1.73;;;;;;;13.80;85.23;96826.63;2595066;36;20994;-74
2021/08/18 07:02:19;;;;;;;2.57;1.67;;;;;;;13.72;86.12;96827.22;2595206;39;20839;-74
2021/08/18 07:04:49;;;;;;;1.63;1.23;;;;;;;13.89;84.87;96825.88;2596077;36;20475;-74
2021/08/18 07:07:19;;;;;;;2.60;1.23;;;;;;;13.91;85.75;96823.94;2596301;54;20977;-74
2021/08/18 07:09:49;;;;;;;1.93;1.03;;;;;;;13.80;85.47;96829.25;2596422;36;20962;-73
2021/08/18 07:12:21;;;;;;;2.40;1.23;;;;;;;13.89;84.75;96828.50;2595653;54;20449;-74
2021/08/18 07:14:50;;;;;;;1.43;0.87;;;;;;;14.00;84.78;96825.88;2595810;36;20792;-74
2021/08/18 07:17:23;;;;;;;2.93;1.00;;;;;;;14.11;84.77;96834.72;2594234;54;20394;-74
2021/08/18 07:19:53;;;;;;;1.30;0.90;;;;;;;14.30;83.64;96831.44;2595540;36;21298;-74
2021/08/18 07:22:22;;;;;;;3.70;1.13;;;;;;;14.62;83.14;96826.22;2594297;54;20431;-73
2021/08/18 07:24:52;;;;;;;2.00;1.07;;;;;;;14.86;81.72;96822.53;2593714;36;20753;-73
2021/08/18 07:27:22;;;;;;;2.20;0.70;;;;;;;14.89;82.31;96827.56;2593904;39;20976;-74
2021/08/18 07:29:53;;;;;;;2.20;1.30;;;;;;;15.19;82.32;96811.84;2594415;36;20446;-73
2021/08/18 07:32:30;;;;;;;1.20;0.80;;;;;;;15.16;79.80;96819.19;2595127;39;20904;-74
2021/08/18 07:35:00;;;;;;;1.33;0.83;;;;;;;15.16;80.23;96814.72;2595446;36;20602;-74
2021/08/18 07:37:30;;;;;;;1.40;0.80;;;;;;;14.94;80.07;96814.88;2595315;39;20737;-74
2021/08/18 07:40:00;;;;;;;2.20;0.80;;;;;;;15.19;80.55;96813.63;2598118;36;20946;-74
2021/08/18 07:42:30;;;;;;;3.37;0.80;;;;;;;15.28;79.50;96818.13;2594036;54;20469;-74
2021/08/18 07:45:01;;;;;;;0.90;0.67;;;;;;;15.54;77.47;96820.38;2593970;36;20418;-74
2021/08/18 07:47:34;;;;;;;1.03;0.60;;;;;;;15.57;78.88;96817.47;2594189;54;20411;-73
2021/08/18 07:50:05;;;;;;;3.30;0.63;;;;;;;15.76;78.25;96807.03;2594869;31;20822;-73
2021/08/18 07:52:35;;;;;;;0.80;0.70;;;;;;;15.75;76.84;96817.72;2593722;54;20913;-73
2021/08/18 07:55:06;;;;;;;1.00;0.60;;;;;;;16.07;76.65;96819.38;2593203;36;20925;-72
2021/08/18 07:57:35;;;;;;;1.00;0.80;;;;;;;16.12;77.10;96811.88;2594924;39;20731;-72
2021/08/18 08:00:07;;;;;;;1.50;0.70;;;;;;;16.00;77.09;96814.63;2594699;36;20461;-72
2021/08/18 08:02:39;;;;;;;0.80;0.50;;;;;;;16.40;76.26;96813.75;2594902;54;21075;-73
2021/08/18 08:05:10;;;;;;;2.97;0.60;;;;;;;15.93;75.90;96802.09;2594207;36;20415;-74
2021/08/18 08:07:40;;;;;;;1.87;0.50;;;;;;;16.19;76.05;96808.56;2595189;39;20866;-73
2021/08/18 08:10:12;;;;;;;1.30;0.67;;;;;;;16.70;73.37;96806.69;2594938;36;20573;-72
2021/08/18 08:12:43;;;;;;;1.03;0.60;;;;;;;16.21;73.61;96811.09;2595057;39;20859;-72
2021/08/18 08:15:14;;;;;;;0.90;0.50;;;;;;;16.15;75.86;96812.47;2595157;36;21097;-72
2021/08/18 08:17:47;;;;;;;1.17;0.60;;;;;;;16.02;76.35;96819.78;2595649;54;21221;-72
2021/08/18 08:20:17;;;;;;;1.33;0.63;;;;;;;16.01;76.58;96813.66;2594552;36;20438;-72
2021/08/18 08:22:47;;;;;;;1.03;0.60;;;;;;;15.58;76.88;96820.00;2595526;47;20434;-73
2021/08/18 08:25:17;;;;;;;0.80;0.50;;;;;;;15.79;77.02;96821.78;2595589;31;20434;-73
2021/08/18 08:27:48;;;;;;;0.80;0.50;;;;;;;15.48;76.30;96824.34;2597868;54;20454;-72
2021/08/18 08:30:18;;;;;;;1.20;0.57;;;;;;;15.87;76.59;96819.28;2598491;36;20422;-72
2021/08/18 08:32:51;;;;;;;0.80;0.60;;;;;;;15.91;76.50;96819.88;2596073;54;20411;-72
2021/08/18 08:35:22;;;;;;;0.77;0.50;;;;;;;16.01;76.68;96826.03;2595459;36;20474;-73
2021/08/18 08:37:52;;;;;;;1.27;0.60;;;;;;;16.26;75.90;96821.25;2594905;54;20430;-72
2021/08/18 08:40:22;;;;;;;0.80;0.50;;;;;;;16.09;76.15;96822.72;2594648;36;20426;-72
2021/08/18 08:42:53;;;;;;;0.90;0.60;;;;;;;15.79;76.14;96829.69;2594234;54;20879;-72
2021/08/18 08:45:25;;;;;;;6.90;0.57;;;;;;;15.89;75.92;96811.25;2595017;31;20985;-72
2021/08/18 08:47:57;;;;;;;2.20;0.67;;;;;;;15.64;76.59;96831.81;2594413;54;21522;-72
2021/08/18 08:50:29;;;;;;;0.80;0.60;;;;;;;15.70;76.39;96836.59;2594571;36;20438;-73
2021/08/18 08:52:59;;;;;;;0.90;0.60;;;;;;;15.73;77.59;96838.16;2594821;54;20877;-73
2021/08/18 08:55:29;;;;;;;0.97;0.70;;;;;;;15.57;76.85;96841.22;2594386;36;20881;-73
2021/08/18 08:57:59;;;;;;;0.77;0.50;;;;;;;15.88;76.70;96838.63;2595709;54;20553;-74
2021/08/18 09:00:29;;;;;;;0.90;0.60;;;;;;;15.99;74.83;96836.75;2594852;36;20802;-73
2021/08/18 09:03:15;;;;;;;2.50;0.70;;;;;;;17.32;71.55;96828.41;2595003;54;20445;-73
2021/08/18 09:05:46;;;;;;;1.00;0.60;;;;;;;18.16;68.39;96834.72;2594333;36;20527;-74
2021/08/18 09:08:20;;;;;;;1.40;0.60;;;;;;;18.24;68.06;96834.81;2594802;54;20387;-74
2021/08/18 09:11:06;;;;;;;1.60;0.87;;;;;;;18.30;68.53;96828.91;2597042;36;20413;-74
2021/08/18 09:13:47;;;;;;;1.40;0.80;;;;;;;18.11;68.30;96818.41;2595219;36;20778;-74
2021/08/18 09:16:19;;;;;;;1.00;0.63;;;;;;;18.19;67.16;96821.19;2595173;54;20401;-74
2021/08/18 09:18:54;;;;;;;1.10;0.70;;;;;;;18.07;67.37;96819.69;2596170;31;20406;-73
2021/08/18 09:21:29;;;;;;;1.00;0.80;;;;;;;18.35;66.58;96823.19;2595055;54;20430;-73
2021/08/18 09:24:24;;;;;;;0.90;0.60;;;;;;;18.39;64.51;96811.28;2595973;36;20418;-74
2021/08/18 09:26:56;;;;;;;1.20;0.80;;;;;;;18.59;64.92;96812.00;2596045;54;21097;-74
2021/08/18 09:29:35;;;;;;;1.83;0.97;;;;;;;18.65;64.49;96818.53;2594365;36;20769;-73
2021/08/18 09:32:21;;;;;;;1.07;0.80;;;;;;;18.23;64.42;96811.94;2595419;54;20922;-74
2021/08/18 09:35:13;;;;;;;1.10;0.80;;;;;;;17.82;67.32;96805.25;2595402;36;20866;-74
2021/08/18 09:37:45;;;;;;;1.33;0.73;;;;;;;18.40;66.28;96812.13;2596334;39;20924;-73
2021/08/18 09:40:20;;;;;;;1.10;0.90;;;;;;;18.43;66.82;96817.97;2597395;36;20427;-74
2021/08/18 09:42:52;;;;;;;1.50;0.80;;;;;;;18.40;65.86;96806.81;2594436;54;20443;-73
2021/08/18 09:45:31;;;;;;;1.80;0.90;;;;;;;18.88;63.68;96814.47;2595242;36;21344;-73
2021/08/18 09:48:07;;;;;;;1.13;0.80;;;;;;;18.81;62.25;96804.59;2596147;54;20893;-74
2021/08/18 09:50:48;;;;;;;1.00;0.60;;;;;;;19.03;61.96;96809.44;2595755;36;20753;-74
2021/08/18 09:53:21;;;;;;;1.27;0.80;;;;;;;19.01;64.42;96811.41;2595543;47;20975;-74
2021/08/18 09:55:57;;;;;;;1.20;0.70;;;;;;;19.82;60.61;96794.41;2597382;36;20901;-74
2021/08/18 09:58:33;;;;;;;0.97;0.70;;;;;;;19.52;60.06;96795.69;2596086;54;20450;-73
2021/08/18 10:01:08;;;;;;;1.57;0.90;;;;;;;18.85;62.20;96800.66;2559537;54;2004008;-74
2021/08/18 10:03:39;;;;;;;0.80;0.50;;;;;;;19.11;61.53;96804.22;2594690;36;21358;-73
2021/08/18 10:06:14;;;;;;;3.87;0.80;;;;;;;19.16;62.12;96798.44;2593959;47;20949;-73
2021/08/18 10:08:45;;;;;;;1.47;0.83;;;;;;;19.98;60.93;96798.13;2593682;36;20422;-74
2021/08/18 10:11:18;;;;;;;1.10;0.73;;;;;;;20.08;59.47;96804.97;2594240;39;20823;-73
2021/08/18 10:13:48;;;;;;;9.10;6.10;;;;;;;19.50;60.11;96795.88;2596372;36;20990;-74
2021/08/18 10:16:18;;;;;;;1.37;0.80;;;;;;;20.40;58.78;96803.41;2595259;54;20375;-74
2021/08/18 10:18:50;;;;;;;1.63;0.90;;;;;;;20.86;57.45;96800.38;2594990;36;20445;-74
2021/08/18 10:21:27;;;;;;;1.10;0.70;;;;;;;19.46;59.94;96802.44;2594742;54;21009;-73
2021/08/18 10:24:00;;;;;;;0.97;0.77;;;;;;;19.94;59.43;96806.41;2595396;31;20423;-74
2021/08/18 10:26:54;;;;;;;1.70;1.00;;;;;;;19.70;62.52;96808.94;2595320;54;20454;-74
2021/08/18 10:29:38;;;;;;;1.00;0.73;;;;;;;19.87;62.16;96801.88;2596804;36;20593;-74
2021/08/18 10:32:13;;;;;;;1.13;0.70;;;;;;;19.14;61.56;96806.53;2596342;54;21005;-73
2021/08/18 10:34:47;;;;;;;1.97;0.80;;;;;;;18.71;64.06;96810.78;2594779;36;20797;-73
2021/08/18 10:37:27;;;;;;;1.10;0.90;;;;;;;18.74;65.25;96809.66;2594365;39;20829;-73
2021/08/18 10:40:14;;;;;;;1.53;0.93;;;;;;;19.47;63.37;96801.47;2594078;36;20477;-74
2021/08/18 10:42:45;;;;;;;3.63;2.67;;;;;;;20.33;61.04;96802.41;2594730;54;20917;-73
2021/08/18 10:45:38;;;;;;;2.27;1.57;;;;;;;20.24;60.53;96804.19;2594060;36;20910;-74
2021/08/18 10:48:11;;;;;;;2.97;2.07;;;;;;;19.75;61.74;96796.00;2594809;39;20826;-73
2021/08/18 10:53:39;;;;;;;19.93;8.70;;;;;;;19.16;63.46;96799.25;2601883;36;20437;-73
2021/08/18 10:56:45;;;;;;;45.10;20.13;;;;;;;19.47;63.13;96801.47;2601573;47;20526;-74
2021/08/18 10:59:45;;;;;;;34.90;16.27;;;;;;;19.08;62.75;96798.38;2596051;36;21001;-74
2021/08/18 11:02:50;;;;;;;22.13;12.13;;;;;;;18.81;63.84;96805.44;2595248;54;20410;-74
2021/08/18 11:05:22;;;;;;;1.00;0.80;;;;;;;18.78;64.01;96811.03;2594438;31;20430;-73
2021/08/18 11:08:08;;;;;;;1.20;0.80;;;;;;;18.83;62.73;96803.47;2595123;54;21018;-73
2021/08/18 11:10:43;;;;;;;1.50;1.20;;;;;;;18.76;64.53;96813.00;2595435;36;20422;-73
2021/08/18 11:13:15;;;;;;;2.00;0.80;;;;;;;18.93;63.09;96806.88;2596117;54;20418;-74
2021/08/18 11:15:56;;;;;;;0.90;0.70;;;;;;;19.04;62.72;96805.81;2595628;36;21192;-73
2021/08/18 11:18:26;;;;;;;1.37;0.80;;;;;;;19.46;62.13;96807.75;2595163;54;20995;-74
2021/08/18 11:20:59;;;;;;;0.90;0.70;;;;;;;19.63;59.94;96803.41;2595306;36;20424;-74
2021/08/18 11:23:34;;;;;;;0.90;0.67;;;;;;;19.10;60.30;96805.19;2595757;54;21008;-74
2021/08/18 11:26:08;;;;;;;1.63;0.70;;;;;;;18.65;61.71;96803.44;2560443;39;2004416;-74
2021/08/18 11:28:38;;;;;;;1.50;0.90;;;;;;;18.57;63.32;96808.66;2597479;36;20418;-72
2021/08/18 11:31:11;;;;;;;1.77;0.77;;;;;;;18.43;64.54;96812.66;2596053;54;21443;-74
2021/08/18 11:33:41;;;;;;;3.60;0.97;;;;;;;18.47;64.01;96807.91;2595403;36;21037;-73
2021/08/18 11:36:20;;;;;;;2.73;1.60;;;;;;;18.72;63.84;96803.69;2598320;54;20435;-73
2021/08/18 11:38:59;;;;;;;10.70;6.37;;;;;;;19.27;62.23;96805.31;2595148;36;21397;-72
2021/08/18 11:41:43;;;;;;;1.20;0.70;;;;;;;19.41;60.83;96804.75;2594091;54;20555;-74
2021/08/18 11:44:27;;;;;;;1.10;0.60;;;;;;;19.34;60.39;96803.69;2593542;36;20550;-73
2021/08/18 11:47:06;;;;;;;1.63;0.70;;;;;;;20.24;58.30;96804.19;2594160;54;20958;-73
2021/08/18 11:49:38;;;;;;;0.80;0.60;;;;;;;20.45;56.39;96797.63;2603967;36;20797;-76
2021/08/18 11:52:18;;;;;;;1.33;0.77;;;;;;;20.86;55.68;96800.38;2598309;39;20507;-74
2021/08/18 11:54:54;;;;;;;1.00;0.60;;;;;;;20.30;57.50;96800.88;2594731;36;20402;-74